sensor_id;sensor_type;location;lat;lon;timestamp;pressure;altitude;pressure_sealevel;temperature;humidity
47967;BME280;33733;52.456;13.620;2023-11-21T00:01:33;100544.00;;;9.64;78.86
47967;BME280;33733;52.456;13.620;2023-11-21T00:04:00;100550.19;;;9.25;78.60
47967;BME280;33733;52.456;13.620;2023-11-21T00:06:28;100552.19;;;9.21;79.51
47967;BME280;33733;52.456;13.620;2023-11-21T00:08:57;100546.78;;;9.62;78.75
47967;BME280;33733;52.456;13.620;2023-11-21T00:11:24;100550.34;;;9.74;78.05
47967;BME280;33733;52.456;13.620;2023-11-21T00:13:54;100552.97;;;9.86;77.65
47967;BME280;33733;52.456;13.620;2023-11-21T00:16:22;100558.78;;;9.79;77.67
47967;BME280;33733;52.456;13.620;2023-11-21T00:18:49;100565.94;;;9.77;76.37
47967;BME280;33733;52.456;13.620;2023-11-21T00:21:18;100561.91;;;9.71;77.14
47967;BME280;33733;52.456;13.620;2023-11-21T00:23:45;100573.00;;;9.89;76.50
47967;BME280;33733;52.456;13.620;2023-11-21T00:26:12;100569.63;;;9.62;76.50
47967;BME280;33733;52.456;13.620;2023-11-21T00:28:39;100574.41;;;9.30;77.54
47967;BME280;33733;52.456;13.620;2023-11-21T00:31:07;100570.31;;;9.26;77.59
47967;BME280;33733;52.456;13.620;2023-11-21T00:33:34;100571.66;;;8.92;78.58
47967;BME280;33733;52.456;13.620;2023-11-21T00:36:01;100579.22;;;9.11;78.03
47967;BME280;33733;52.456;13.620;2023-11-21T00:38:29;100575.53;;;9.13;78.04
47967;BME280;33733;52.456;13.620;2023-11-21T00:40:58;100576.06;;;8.65;78.65
47967;BME280;33733;52.456;13.620;2023-11-21T00:43:25;100578.19;;;8.60;78.72
47967;BME280;33733;52.456;13.620;2023-11-21T00:45:53;100587.56;;;8.64;79.29
47967;BME280;33733;52.456;13.620;2023-11-21T00:48:20;100590.84;;;8.94;77.99
47967;BME280;33733;52.456;13.620;2023-11-21T00:50:47;100587.78;;;8.73;79.09
47967;BME280;33733;52.456;13.620;2023-11-21T00:53:15;100589.44;;;8.62;79.25
47967;BME280;33733;52.456;13.620;2023-11-21T00:55:43;100585.50;;;8.40;79.39
47967;BME280;33733;52.456;13.620;2023-11-21T00:58:10;100595.47;;;8.49;79.52
47967;BME280;33733;52.456;13.620;2023-11-21T01:00:37;100594.25;;;8.41;79.87
47967;BME280;33733;52.456;13.620;2023-11-21T01:03:06;100601.63;;;8.63;79.70
47967;BME280;33733;52.456;13.620;2023-11-21T01:05:35;100602.84;;;8.71;78.45
47967;BME280;33733;52.456;13.620;2023-11-21T01:08:02;100605.22;;;7.91;80.19
47967;BME280;33733;52.456;13.620;2023-11-21T01:10:30;100612.81;;;8.10;80.66
47967;BME280;33733;52.456;13.620;2023-11-21T01:12:57;100615.88;;;8.32;79.94
47967;BME280;33733;52.456;13.620;2023-11-21T01:15:25;100617.97;;;8.25;79.36
47967;BME280;33733;52.456;13.620;2023-11-21T01:17:53;100617.81;;;8.42;79.16
47967;BME280;33733;52.456;13.620;2023-11-21T01:20:20;100617.91;;;8.55;79.10
47967;BME280;33733;52.456;13.620;2023-11-21T01:22:47;100626.78;;;8.53;78.84
47967;BME280;33733;52.456;13.620;2023-11-21T01:25:16;100626.03;;;8.65;77.94
47967;BME280;33733;52.456;13.620;2023-11-21T01:27:43;100627.84;;;8.50;78.47
47967;BME280;33733;52.456;13.620;2023-11-21T01:30:11;100628.56;;;8.52;78.33
47967;BME280;33733;52.456;13.620;2023-11-21T01:32:39;100637.69;;;8.18;79.36
47967;BME280;33733;52.456;13.620;2023-11-21T01:35:07;100637.66;;;7.90;79.62
47967;BME280;33733;52.456;13.620;2023-11-21T01:37:37;100640.00;;;7.94;79.52
47967;BME280;33733;52.456;13.620;2023-11-21T01:40:05;100639.81;;;7.97;78.85
47967;BME280;33733;52.456;13.620;2023-11-21T01:42:42;100646.13;;;7.95;78.76
47967;BME280;33733;52.456;13.620;2023-11-21T01:45:11;100650.38;;;8.40;78.86
47967;BME280;33733;52.456;13.620;2023-11-21T01:47:40;100650.28;;;8.41;77.57
47967;BME280;33733;52.456;13.620;2023-11-21T01:50:09;100656.28;;;8.29;78.28
47967;BME280;33733;52.456;13.620;2023-11-21T01:52:39;100652.22;;;7.95;78.54
47967;BME280;33733;52.456;13.620;2023-11-21T01:55:08;100658.81;;;7.73;78.53
47967;BME280;33733;52.456;13.620;2023-11-21T01:57:36;100656.91;;;8.19;77.54
47967;BME280;33733;52.456;13.620;2023-11-21T02:00:07;100654.72;;;7.97;77.16
47967;BME280;33733;52.456;13.620;2023-11-21T02:02:45;100656.88;;;7.90;77.92
47967;BME280;33733;52.456;13.620;2023-11-21T02:05:14;100671.00;;;7.74;78.02
47967;BME280;33733;52.456;13.620;2023-11-21T02:07:42;100666.28;;;7.35;78.25
47967;BME280;33733;52.456;13.620;2023-11-21T02:10:14;100673.53;;;7.45;78.87
47967;BME280;33733;52.456;13.620;2023-11-21T02:12:42;100671.53;;;7.65;78.73
47967;BME280;33733;52.456;13.620;2023-11-21T02:15:14;100668.97;;;7.79;77.46
47967;BME280;33733;52.456;13.620;2023-11-21T02:17:49;100671.22;;;7.85;76.97
47967;BME280;33733;52.456;13.620;2023-11-21T02:20:21;100676.50;;;7.55;76.98
47967;BME280;33733;52.456;13.620;2023-11-21T02:22:53;100673.75;;;7.56;78.22
47967;BME280;33733;52.456;13.620;2023-11-21T02:25:28;100684.13;;;7.44;78.20
47967;BME280;33733;52.456;13.620;2023-11-21T02:27:57;100679.84;;;7.57;77.50
47967;BME280;33733;52.456;13.620;2023-11-21T02:30:25;100681.63;;;7.27;78.65
47967;BME280;33733;52.456;13.620;2023-11-21T02:32:53;100695.06;;;7.36;77.96
47967;BME280;33733;52.456;13.620;2023-11-21T02:35:21;100693.28;;;7.21;78.01
47967;BME280;33733;52.456;13.620;2023-11-21T02:37:51;100695.00;;;7.06;77.74
47967;BME280;33733;52.456;13.620;2023-11-21T02:40:19;100692.44;;;7.05;78.66
47967;BME280;33733;52.456;13.620;2023-11-21T02:42:49;100695.16;;;7.19;77.13
47967;BME280;33733;52.456;13.620;2023-11-21T02:45:20;100701.53;;;6.84;78.29
47967;BME280;33733;52.456;13.620;2023-11-21T02:47:51;100709.13;;;6.88;78.61
47967;BME280;33733;52.456;13.620;2023-11-21T02:50:21;100705.47;;;7.38;77.39
47967;BME280;33733;52.456;13.620;2023-11-21T02:52:50;100708.72;;;6.96;77.03
47967;BME280;33733;52.456;13.620;2023-11-21T02:55:18;100714.03;;;6.79;78.31
47967;BME280;33733;52.456;13.620;2023-11-21T02:57:45;100716.75;;;7.08;78.47
47967;BME280;33733;52.456;13.620;2023-11-21T03:00:13;100712.06;;;7.29;77.92
47967;BME280;33733;52.456;13.620;2023-11-21T03:02:44;100714.03;;;6.94;77.06
47967;BME280;33733;52.456;13.620;2023-11-21T03:05:11;100716.72;;;6.77;77.88
47967;BME280;33733;52.456;13.620;2023-11-21T03:07:39;100716.91;;;6.90;78.12
47967;BME280;33733;52.456;13.620;2023-11-21T03:10:08;100711.81;;;7.34;76.90
47967;BME280;33733;52.456;13.620;2023-11-21T03:12:39;100721.63;;;7.46;76.57
47967;BME280;33733;52.456;13.620;2023-11-21T03:15:07;100725.44;;;7.40;76.57
47967;BME280;33733;52.456;13.620;2023-11-21T03:17:36;100720.50;;;7.50;74.98
47967;BME280;33733;52.456;13.620;2023-11-21T03:20:05;100721.16;;;7.53;75.22
47967;BME280;33733;52.456;13.620;2023-11-21T03:22:32;100720.09;;;7.42;76.13
47967;BME280;33733;52.456;13.620;2023-11-21T03:25:00;100721.63;;;7.30;75.66
47967;BME280;33733;52.456;13.620;2023-11-21T03:27:28;100736.03;;;6.92;76.68
47967;BME280;33733;52.456;13.620;2023-11-21T03:29:55;100732.59;;;6.74;77.54
47967;BME280;33733;52.456;13.620;2023-11-21T03:32:23;100738.25;;;6.67;76.64
47967;BME280;33733;52.456;13.620;2023-11-21T03:34:55;100742.78;;;6.96;76.99
47967;BME280;33733;52.456;13.620;2023-11-21T03:37:24;100741.53;;;7.03;76.77
47967;BME280;33733;52.456;13.620;2023-11-21T03:39:57;100744.63;;;6.78;76.58
47967;BME280;33733;52.456;13.620;2023-11-21T03:42:25;100754.53;;;6.89;76.72
47967;BME280;33733;52.456;13.620;2023-11-21T03:44:54;100753.03;;;7.00;76.52
47967;BME280;33733;52.456;13.620;2023-11-21T03:47:21;100752.47;;;6.78;75.99
47967;BME280;33733;52.456;13.620;2023-11-21T03:49:49;100753.09;;;6.83;76.16
47967;BME280;33733;52.456;13.620;2023-11-21T03:52:16;100763.66;;;6.97;75.50
47967;BME280;33733;52.456;13.620;2023-11-21T03:54:44;100768.00;;;7.14;74.34
47967;BME280;33733;52.456;13.620;2023-11-21T03:57:12;100769.41;;;6.73;74.43
47967;BME280;33733;52.456;13.620;2023-11-21T03:59:40;100769.50;;;7.02;75.58
47967;BME280;33733;52.456;13.620;2023-11-21T04:02:08;100774.94;;;6.99;74.37
47967;BME280;33733;52.456;13.620;2023-11-21T04:04:36;100778.63;;;6.80;73.54
47967;BME280;33733;52.456;13.620;2023-11-21T04:07:03;100777.44;;;7.01;74.01
47967;BME280;33733;52.456;13.620;2023-11-21T04:09:31;100773.91;;;7.02;73.99
47967;BME280;33733;52.456;13.620;2023-11-21T04:11:58;100777.94;;;6.76;74.49
47967;BME280;33733;52.456;13.620;2023-11-21T04:14:26;100779.09;;;7.19;73.55
47967;BME280;33733;52.456;13.620;2023-11-21T04:16:53;100781.19;;;7.13;72.87
47967;BME280;33733;52.456;13.620;2023-11-21T04:19:21;100785.44;;;7.31;72.64
47967;BME280;33733;52.456;13.620;2023-11-21T04:21:48;100788.06;;;6.49;73.31
47967;BME280;33733;52.456;13.620;2023-11-21T04:24:16;100787.56;;;6.26;74.63
47967;BME280;33733;52.456;13.620;2023-11-21T04:26:44;100800.44;;;6.30;74.60
47967;BME280;33733;52.456;13.620;2023-11-21T04:29:12;100794.75;;;6.72;73.89
47967;BME280;33733;52.456;13.620;2023-11-21T04:31:39;100800.31;;;6.49;73.97
47967;BME280;33733;52.456;13.620;2023-11-21T04:34:06;100811.22;;;6.07;74.56
47967;BME280;33733;52.456;13.620;2023-11-21T04:36:33;100802.19;;;6.47;74.23
47967;BME280;33733;52.456;13.620;2023-11-21T04:39:02;100819.84;;;6.09;75.45
47967;BME280;33733;52.456;13.620;2023-11-21T04:41:29;100815.44;;;6.09;74.12
47967;BME280;33733;52.456;13.620;2023-11-21T04:43:58;100817.13;;;6.10;74.22
47967;BME280;33733;52.456;13.620;2023-11-21T04:46:28;100819.84;;;6.26;74.38
47967;BME280;33733;52.456;13.620;2023-11-21T04:48:56;100825.84;;;6.45;74.06
47967;BME280;33733;52.456;13.620;2023-11-21T04:51:23;100822.06;;;5.99;73.60
47967;BME280;33733;52.456;13.620;2023-11-21T04:53:50;100827.16;;;6.37;73.36
47967;BME280;33733;52.456;13.620;2023-11-21T04:56:18;100823.53;;;6.05;73.65
47967;BME280;33733;52.456;13.620;2023-11-21T04:58:45;100827.63;;;6.28;73.67
47967;BME280;33733;52.456;13.620;2023-11-21T05:01:12;100825.47;;;6.36;73.72
47967;BME280;33733;52.456;13.620;2023-11-21T05:03:41;100831.00;;;6.12;74.32
47967;BME280;33733;52.456;13.620;2023-11-21T05:06:11;100842.41;;;6.46;74.04
47967;BME280;33733;52.456;13.620;2023-11-21T05:08:38;100835.66;;;6.25;73.87
47967;BME280;33733;52.456;13.620;2023-11-21T05:11:05;100844.22;;;6.78;73.44
47967;BME280;33733;52.456;13.620;2023-11-21T05:13:34;100847.97;;;6.90;72.19
47967;BME280;33733;52.456;13.620;2023-11-21T05:16:02;100852.56;;;6.35;72.89
47967;BME280;33733;52.456;13.620;2023-11-21T05:18:31;100853.72;;;6.46;72.90
47967;BME280;33733;52.456;13.620;2023-11-21T05:20:58;100858.63;;;5.82;74.16
47967;BME280;33733;52.456;13.620;2023-11-21T05:23:26;100867.19;;;6.04;75.45
47967;BME280;33733;52.456;13.620;2023-11-21T05:25:53;100866.31;;;6.40;73.37
47967;BME280;33733;52.456;13.620;2023-11-21T05:28:20;100864.22;;;6.46;73.58
47967;BME280;33733;52.456;13.620;2023-11-21T05:30:47;100863.44;;;6.61;73.67
47967;BME280;33733;52.456;13.620;2023-11-21T05:33:21;100875.75;;;6.25;73.81
47967;BME280;33733;52.456;13.620;2023-11-21T05:35:48;100867.38;;;6.36;73.39
47967;BME280;33733;52.456;13.620;2023-11-21T05:38:16;100878.00;;;6.84;72.93
47967;BME280;33733;52.456;13.620;2023-11-21T05:40:43;100885.41;;;6.76;72.50
47967;BME280;33733;52.456;13.620;2023-11-21T05:43:11;100887.91;;;6.95;72.33
47967;BME280;33733;52.456;13.620;2023-11-21T05:45:38;100883.34;;;7.31;71.67
47967;BME280;33733;52.456;13.620;2023-11-21T05:48:06;100886.78;;;6.83;71.18
47967;BME280;33733;52.456;13.620;2023-11-21T05:50:33;100896.03;;;7.23;71.51
47967;BME280;33733;52.456;13.620;2023-11-21T05:53:00;100899.25;;;7.28;70.88
47967;BME280;33733;52.456;13.620;2023-11-21T05:55:28;100906.28;;;7.28;70.30
47967;BME280;33733;52.456;13.620;2023-11-21T05:57:55;100904.44;;;7.13;70.39
47967;BME280;33733;52.456;13.620;2023-11-21T06:00:22;100905.47;;;7.10;70.32
47967;BME280;33733;52.456;13.620;2023-11-21T06:02:53;100909.03;;;6.57;73.03
47967;BME280;33733;52.456;13.620;2023-11-21T06:05:23;100910.25;;;6.85;72.77
47967;BME280;33733;52.456;13.620;2023-11-21T06:07:51;100921.75;;;6.65;72.61
47967;BME280;33733;52.456;13.620;2023-11-21T06:10:23;100920.91;;;6.99;71.66
47967;BME280;33733;52.456;13.620;2023-11-21T06:12:52;100927.84;;;6.31;73.09
47967;BME280;33733;52.456;13.620;2023-11-21T06:15:20;100927.84;;;6.31;73.71
47967;BME280;33733;52.456;13.620;2023-11-21T06:17:51;100936.13;;;6.05;73.00
47967;BME280;33733;52.456;13.620;2023-11-21T06:20:21;100941.94;;;6.10;73.58
47967;BME280;33733;52.456;13.620;2023-11-21T06:22:50;100936.91;;;6.24;73.64
47967;BME280;33733;52.456;13.620;2023-11-21T06:25:18;100939.84;;;5.81;74.80
47967;BME280;33733;52.456;13.620;2023-11-21T06:27:46;100938.13;;;6.17;73.91
47967;BME280;33733;52.456;13.620;2023-11-21T06:30:17;100948.81;;;6.66;73.28
47967;BME280;33733;52.456;13.620;2023-11-21T06:32:47;100953.66;;;6.73;73.40
47967;BME280;33733;52.456;13.620;2023-11-21T06:35:15;100962.25;;;6.77;71.97
47967;BME280;33733;52.456;13.620;2023-11-21T06:37:44;100953.44;;;6.78;72.38
47967;BME280;33733;52.456;13.620;2023-11-21T06:40:17;100964.84;;;6.59;72.40
47967;BME280;33733;52.456;13.620;2023-11-21T06:42:48;100975.75;;;6.33;72.60
47967;BME280;33733;52.456;13.620;2023-11-21T06:45:17;100979.50;;;6.64;72.67
47967;BME280;33733;52.456;13.620;2023-11-21T06:47:45;100982.72;;;6.51;72.27
47967;BME280;33733;52.456;13.620;2023-11-21T06:50:13;100985.16;;;6.37;73.88
47967;BME280;33733;52.456;13.620;2023-11-21T06:52:40;100985.84;;;6.77;72.74
47967;BME280;33733;52.456;13.620;2023-11-21T06:55:08;100983.75;;;6.66;73.80
47967;BME280;33733;52.456;13.620;2023-11-21T06:57:37;100983.63;;;6.14;74.08
47967;BME280;33733;52.456;13.620;2023-11-21T07:00:06;100988.59;;;6.21;74.05
47967;BME280;33733;52.456;13.620;2023-11-21T07:02:37;100997.31;;;5.82;73.28
47967;BME280;33733;52.456;13.620;2023-11-21T07:05:04;100993.81;;;6.02;74.04
47967;BME280;33733;52.456;13.620;2023-11-21T07:07:35;100990.31;;;5.64;74.73
47967;BME280;33733;52.456;13.620;2023-11-21T07:10:05;100998.00;;;5.87;75.48
47967;BME280;33733;52.456;13.620;2023-11-21T07:12:32;100999.69;;;6.07;75.12
47967;BME280;33733;52.456;13.620;2023-11-21T07:15:03;100998.81;;;6.25;74.30
47967;BME280;33733;52.456;13.620;2023-11-21T07:17:32;101003.38;;;6.22;74.00
47967;BME280;33733;52.456;13.620;2023-11-21T07:20:03;101006.44;;;6.12;73.92
47967;BME280;33733;52.456;13.620;2023-11-21T07:22:43;101014.97;;;6.35;72.92
47967;BME280;33733;52.456;13.620;2023-11-21T07:25:13;101022.28;;;6.28;73.10
47967;BME280;33733;52.456;13.620;2023-11-21T07:27:40;101020.38;;;6.68;72.12
47967;BME280;33733;52.456;13.620;2023-11-21T07:30:08;101024.63;;;5.97;72.74
47967;BME280;33733;52.456;13.620;2023-11-21T07:32:37;101029.66;;;5.42;74.37
47967;BME280;33733;52.456;13.620;2023-11-21T07:35:11;101033.09;;;5.63;73.55
47967;BME280;33733;52.456;13.620;2023-11-21T07:37:39;101028.72;;;5.82;72.66
47967;BME280;33733;52.456;13.620;2023-11-21T07:40:07;101032.22;;;5.44;73.15
47967;BME280;33733;52.456;13.620;2023-11-21T07:42:36;101024.72;;;5.55;73.92
47967;BME280;33733;52.456;13.620;2023-11-21T07:45:05;101025.97;;;5.85;73.17
47967;BME280;33733;52.456;13.620;2023-11-21T07:47:34;101034.59;;;6.07;72.08
47967;BME280;33733;52.456;13.620;2023-11-21T07:50:03;101031.81;;;5.53;72.58
47967;BME280;33733;52.456;13.620;2023-11-21T07:52:31;101028.50;;;5.68;72.67
47967;BME280;33733;52.456;13.620;2023-11-21T07:54:58;101039.34;;;5.79;71.88
47967;BME280;33733;52.456;13.620;2023-11-21T07:57:25;101037.28;;;5.67;72.28
47967;BME280;33733;52.456;13.620;2023-11-21T07:59:53;101051.81;;;6.13;71.53
47967;BME280;33733;52.456;13.620;2023-11-21T08:02:23;101054.91;;;6.40;70.51
47967;BME280;33733;52.456;13.620;2023-11-21T08:04:50;101048.44;;;5.91;71.32
47967;BME280;33733;52.456;13.620;2023-11-21T08:07:18;101053.81;;;5.67;71.15
47967;BME280;33733;52.456;13.620;2023-11-21T08:09:45;101059.50;;;5.77;72.49
47967;BME280;33733;52.456;13.620;2023-11-21T08:12:13;101062.69;;;6.04;70.89
47967;BME280;33733;52.456;13.620;2023-11-21T08:14:41;101061.06;;;6.20;71.10
47967;BME280;33733;52.456;13.620;2023-11-21T08:17:10;101065.44;;;6.20;71.00
47967;BME280;33733;52.456;13.620;2023-11-21T08:19:37;101072.16;;;6.06;71.26
47967;BME280;33733;52.456;13.620;2023-11-21T08:22:04;101069.94;;;5.97;71.59
47967;BME280;33733;52.456;13.620;2023-11-21T08:24:34;101069.53;;;6.06;71.85
47967;BME280;33733;52.456;13.620;2023-11-21T08:27:02;101075.47;;;6.10;70.91
47967;BME280;33733;52.456;13.620;2023-11-21T08:29:31;101084.38;;;5.47;73.20
47967;BME280;33733;52.456;13.620;2023-11-21T08:31:58;101084.19;;;5.31;73.10
47967;BME280;33733;52.456;13.620;2023-11-21T08:34:27;101085.22;;;5.27;73.87
47967;BME280;33733;52.456;13.620;2023-11-21T08:36:55;101089.94;;;5.39;73.43
47967;BME280;33733;52.456;13.620;2023-11-21T08:39:24;101087.03;;;5.65;72.70
47967;BME280;33733;52.456;13.620;2023-11-21T08:41:52;101090.94;;;5.37;71.91
47967;BME280;33733;52.456;13.620;2023-11-21T08:44:19;101090.66;;;5.22;73.42
47967;BME280;33733;52.456;13.620;2023-11-21T08:46:46;101093.31;;;5.61;72.75
47967;BME280;33733;52.456;13.620;2023-11-21T08:49:14;101091.47;;;5.84;71.73
47967;BME280;33733;52.456;13.620;2023-11-21T08:51:44;101100.16;;;5.45;72.22
47967;BME280;33733;52.456;13.620;2023-11-21T08:54:12;101106.03;;;5.50;72.58
47967;BME280;33733;52.456;13.620;2023-11-21T08:56:39;101106.09;;;5.49;72.97
47967;BME280;33733;52.456;13.620;2023-11-21T08:59:06;101113.09;;;5.68;71.86
47967;BME280;33733;52.456;13.620;2023-11-21T09:01:35;101107.72;;;5.51;71.94
47967;BME280;33733;52.456;13.620;2023-11-21T09:04:02;101117.13;;;5.35;73.12
47967;BME280;33733;52.456;13.620;2023-11-21T09:06:30;101119.28;;;5.46;72.13
47967;BME280;33733;52.456;13.620;2023-11-21T09:08:57;101118.00;;;5.36;72.33
47967;BME280;33733;52.456;13.620;2023-11-21T09:11:25;101121.06;;;5.65;72.29
47967;BME280;33733;52.456;13.620;2023-11-21T09:13:54;101129.19;;;6.00;71.20
47967;BME280;33733;52.456;13.620;2023-11-21T09:16:21;101128.00;;;5.46;71.98
47967;BME280;33733;52.456;13.620;2023-11-21T09:18:49;101140.28;;;5.44;72.69
47967;BME280;33733;52.456;13.620;2023-11-21T09:21:16;101146.59;;;5.60;72.13
47967;BME280;33733;52.456;13.620;2023-11-21T09:23:47;101143.97;;;5.81;71.39
47967;BME280;33733;52.456;13.620;2023-11-21T09:26:15;101151.81;;;5.81;70.81
47967;BME280;33733;52.456;13.620;2023-11-21T09:28:46;101159.31;;;5.48;72.16
47967;BME280;33733;52.456;13.620;2023-11-21T09:31:14;101164.78;;;5.42;73.03
47967;BME280;33733;52.456;13.620;2023-11-21T09:33:43;101164.69;;;5.45;73.99
47967;BME280;33733;52.456;13.620;2023-11-21T09:36:12;101165.66;;;5.83;72.95
47967;BME280;33733;52.456;13.620;2023-11-21T09:38:41;101163.13;;;5.41;72.35
47967;BME280;33733;52.456;13.620;2023-11-21T09:41:20;101171.03;;;5.59;72.28
47967;BME280;33733;52.456;13.620;2023-11-21T09:43:51;101174.50;;;5.60;72.89
47967;BME280;33733;52.456;13.620;2023-11-21T09:46:23;101173.34;;;5.25;73.86
47967;BME280;33733;52.456;13.620;2023-11-21T09:48:52;101179.34;;;5.27;73.47
47967;BME280;33733;52.456;13.620;2023-11-21T09:51:22;101176.09;;;5.64;73.01
47967;BME280;33733;52.456;13.620;2023-11-21T09:53:54;101178.84;;;5.81;72.39
47967;BME280;33733;52.456;13.620;2023-11-21T09:56:23;101185.81;;;5.18;73.39
47967;BME280;33733;52.456;13.620;2023-11-21T09:58:54;101188.97;;;5.27;74.45
47967;BME280;33733;52.456;13.620;2023-11-21T10:01:24;101192.00;;;4.94;74.73
47967;BME280;33733;52.456;13.620;2023-11-21T10:03:53;101191.03;;;4.97;75.10
47967;BME280;33733;52.456;13.620;2023-11-21T10:06:22;101197.69;;;5.05;75.49
47967;BME280;33733;52.456;13.620;2023-11-21T10:08:53;101197.88;;;5.43;73.60
47967;BME280;33733;52.456;13.620;2023-11-21T10:11:24;101194.31;;;5.45;73.68
47967;BME280;33733;52.456;13.620;2023-11-21T10:13:55;101200.00;;;5.55;73.99
47967;BME280;33733;52.456;13.620;2023-11-21T10:16:26;101198.72;;;5.65;72.13
47967;BME280;33733;52.456;13.620;2023-11-21T10:18:55;101183.22;;;5.81;72.33
47967;BME280;33733;52.456;13.620;2023-11-21T10:21:38;101190.66;;;5.69;72.25
47967;BME280;33733;52.456;13.620;2023-11-21T10:24:07;101191.13;;;5.79;70.89
47967;BME280;33733;52.456;13.620;2023-11-21T10:26:34;101205.22;;;5.13;72.05
47967;BME280;33733;52.456;13.620;2023-11-21T10:29:16;101207.41;;;5.24;72.50
47967;BME280;33733;52.456;13.620;2023-11-21T10:31:45;101199.31;;;5.08;73.29
47967;BME280;33733;52.456;13.620;2023-11-21T10:36:43;101213.22;;;5.52;72.92
47967;BME280;33733;52.456;13.620;2023-11-21T10:39:18;101212.50;;;5.48;72.21
47967;BME280;33733;52.456;13.620;2023-11-21T10:41:47;101213.25;;;5.50;72.66
47967;BME280;33733;52.456;13.620;2023-11-21T10:44:15;101214.03;;;5.32;73.12
47967;BME280;33733;52.456;13.620;2023-11-21T10:46:55;101218.56;;;5.27;72.21
47967;BME280;33733;52.456;13.620;2023-11-21T10:49:26;101219.13;;;5.35;72.92
47967;BME280;33733;52.456;13.620;2023-11-21T10:51:56;101225.97;;;5.38;72.89
47967;BME280;33733;52.456;13.620;2023-11-21T10:54:24;101230.88;;;5.25;72.81
47967;BME280;33733;52.456;13.620;2023-11-21T10:57:02;101226.91;;;5.15;72.21
47967;BME280;33733;52.456;13.620;2023-11-21T10:59:31;101225.41;;;5.09;73.24
47967;BME280;33733;52.456;13.620;2023-11-21T11:02:01;101227.94;;;5.11;73.22
47967;BME280;33733;52.456;13.620;2023-11-21T11:04:33;101224.88;;;5.21;72.81
47967;BME280;33733;52.456;13.620;2023-11-21T11:07:08;101226.44;;;5.05;73.16
47967;BME280;33733;52.456;13.620;2023-11-21T11:09:37;101229.72;;;5.32;72.70
47967;BME280;33733;52.456;13.620;2023-11-21T11:12:06;101228.41;;;5.42;73.06
47967;BME280;33733;52.456;13.620;2023-11-21T11:14:34;101231.53;;;5.52;72.66
47967;BME280;33733;52.456;13.620;2023-11-21T11:17:01;101235.50;;;5.40;72.40
47967;BME280;33733;52.456;13.620;2023-11-21T11:19:31;101243.81;;;5.50;73.07
47967;BME280;33733;52.456;13.620;2023-11-21T11:27:37;101242.66;;;5.57;73.26
47967;BME280;33733;52.456;13.620;2023-11-21T11:33:27;101254.78;;;4.93;74.92
47967;BME280;33733;52.456;13.620;2023-11-21T11:38:47;101270.56;;;5.13;74.58
47967;BME280;33733;52.456;13.620;2023-11-21T11:41:27;101277.88;;;5.27;73.35
47967;BME280;33733;52.456;13.620;2023-11-21T11:43:54;101281.81;;;5.15;74.11
47967;BME280;33733;52.456;13.620;2023-11-21T11:46:41;101274.69;;;4.97;74.19
47967;BME280;33733;52.456;13.620;2023-11-21T11:49:09;101285.72;;;4.82;74.34
47967;BME280;33733;52.456;13.620;2023-11-21T11:51:36;101280.66;;;4.77;73.91
47967;BME280;33733;52.456;13.620;2023-11-21T11:54:07;101295.34;;;5.03;74.73
47967;BME280;33733;52.456;13.620;2023-11-21T11:56:34;101292.00;;;4.99;74.61
47967;BME280;33733;52.456;13.620;2023-11-21T11:59:04;101298.69;;;5.06;74.79
47967;BME280;33733;52.456;13.620;2023-11-21T12:01:32;101302.72;;;5.15;73.99
47967;BME280;33733;52.456;13.620;2023-11-21T12:06:53;101302.88;;;5.10;74.03
47967;BME280;33733;52.456;13.620;2023-11-21T12:09:22;101308.97;;;4.88;73.70
47967;BME280;33733;52.456;13.620;2023-11-21T12:11:51;101317.97;;;5.04;73.18
47967;BME280;33733;52.456;13.620;2023-11-21T12:14:18;101317.09;;;5.03;73.59
47967;BME280;33733;52.456;13.620;2023-11-21T12:16:46;101322.56;;;4.97;73.37
47967;BME280;33733;52.456;13.620;2023-11-21T12:19:15;101318.63;;;5.32;72.11
47967;BME280;33733;52.456;13.620;2023-11-21T12:21:43;101321.66;;;4.98;72.94
47967;BME280;33733;52.456;13.620;2023-11-21T12:24:11;101322.94;;;5.10;72.01
47967;BME280;33733;52.456;13.620;2023-11-21T12:26:42;101336.06;;;5.32;71.11
47967;BME280;33733;52.456;13.620;2023-11-21T12:29:09;101331.56;;;5.35;71.91
47967;BME280;33733;52.456;13.620;2023-11-21T12:31:38;101344.19;;;5.47;70.76
47967;BME280;33733;52.456;13.620;2023-11-21T12:34:07;101344.38;;;4.96;71.73
47967;BME280;33733;52.456;13.620;2023-11-21T12:36:35;101355.22;;;4.86;71.46
47967;BME280;33733;52.456;13.620;2023-11-21T12:39:03;101358.69;;;4.86;72.15
47967;BME280;33733;52.456;13.620;2023-11-21T12:41:30;101359.53;;;4.87;72.58
47967;BME280;33733;52.456;13.620;2023-11-21T12:43:58;101359.38;;;4.91;72.19
47967;BME280;33733;52.456;13.620;2023-11-21T12:46:26;101363.09;;;5.09;72.74
47967;BME280;33733;52.456;13.620;2023-11-21T12:48:57;101366.66;;;5.30;73.02
47967;BME280;33733;52.456;13.620;2023-11-21T12:51:25;101361.50;;;5.05;73.18
47967;BME280;33733;52.456;13.620;2023-11-21T12:53:52;101359.47;;;4.65;73.94
47967;BME280;33733;52.456;13.620;2023-11-21T12:56:21;101365.22;;;4.50;75.69
47967;BME280;33733;52.456;13.620;2023-11-21T12:58:53;101363.25;;;4.56;75.66
47967;BME280;33733;52.456;13.620;2023-11-21T13:01:25;101366.75;;;4.80;75.43
47967;BME280;33733;52.456;13.620;2023-11-21T13:03:57;101372.53;;;5.13;74.50
47967;BME280;33733;52.456;13.620;2023-11-21T13:06:25;101374.84;;;5.44;73.28
47967;BME280;33733;52.456;13.620;2023-11-21T13:08:54;101378.31;;;5.21;72.93
47967;BME280;33733;52.456;13.620;2023-11-21T13:11:24;101379.44;;;4.91;73.74
47967;BME280;33733;52.456;13.620;2023-11-21T13:13:53;101387.38;;;4.88;74.02
47967;BME280;33733;52.456;13.620;2023-11-21T13:16:21;101394.53;;;4.83;74.28